Accueil
METAR-TAF:

METAR-TAF

Aéroports :

Aéroport de Heringsdorf

Heringsdorf, Allemagne

latitude: 53-53N, longitude: 014-09E, altitude: 28 m

Observation

Le bulletin a été fait il y a 53 minutes, à 03:20 UTC
Vent 1 kt de direction variable
Température 14°C
Humidité 88%
Pression 1011 hPa
Visibilité 10 km ou plus

METAR: EDAH 170320Z AUTO VRB01KT 9999 // SCT099/// 14/12 Q1011

Heure: 06:13 (04:13 UTC)

Prévision

Le bulletin a été fait il y a 11 heures et 13 minutes, à 17:00 UTC
Prévision valable du 16 à 18 UTC au 17 à 03 UTC
Vent 10 kt de ouest/sud-ouest
Visibilité 10 km ou plus
pas de nuages en-dessous de 1500 mètres et pas de cumulonimbus.
Probabilité 30% :
Temporairement
du 16 à 22 UTC au 17 à 02 UTC
Nuages fragmentés à une hauteur de 3000 ft, Cumulonimbus.
averses de pluie,

TAF: EDAH 161700Z 1618/1703 25010KT CAVOK PROB30 TEMPO 1622/1702 SHRA BKN030CB

Observations et prévisions météorologiques de plus de 4000 aéroports (messages METAR et TAF).

Les stations disponibles sont représentées par des disques jaunes et rouges sur la carte.

Passer la souris dessus pour voir le nom de la station.

Cliquer dessus pour voir les observations et prévisions météorologiques.

Pour changer de carte: cliquez sur les boutons verts avec une croix noire pour zoomer, sur le bouton vert avec un tiret pour effectuer un zoom arrière, ou sur les flèches vertes pour les cartes adjacentes.


METAR-TAF: